createdAt,value
2019-03-22T00:00:53.304Z,439.67
2019-03-22T00:03:01.093Z,430.65
2019-03-22T00:05:09.160Z,427.02
2019-03-22T00:07:16.931Z,415.92
2019-03-22T00:09:24.806Z,416.70
2019-03-22T00:11:32.520Z,415.68
2019-03-22T00:13:40.336Z,404.55
2019-03-22T00:15:48.223Z,416.27
2019-03-22T00:17:55.953Z,384.05
2019-03-22T00:20:06.309Z,414.52
2019-03-22T00:22:13.982Z,414.13
2019-03-22T00:24:21.720Z,481.52
2019-03-22T00:26:29.566Z,475.85
2019-03-22T00:28:37.283Z,567.65
2019-03-22T00:30:45.015Z,494.13
2019-03-22T00:32:54.080Z,523.45
2019-03-22T00:35:02.023Z,697.40
2019-03-22T00:37:09.737Z,594.10
2019-03-22T00:39:17.522Z,555.55
2019-03-22T00:41:25.298Z,502.60
2019-03-22T00:43:32.941Z,507.58
2019-03-22T00:45:40.741Z,566.45
2019-03-22T00:47:48.519Z,497.52
2019-03-22T00:49:56.323Z,449.77
2019-03-22T00:52:04.102Z,453.50
2019-03-22T00:54:12.419Z,441.32
2019-03-22T00:56:21.441Z,411.60
2019-03-22T00:58:29.030Z,424.73
2019-03-22T01:00:36.931Z,422.35
2019-03-22T01:02:44.733Z,412.95
2019-03-22T01:04:52.440Z,399.98
2019-03-22T01:07:00.389Z,417.10
2019-03-22T01:09:08.291Z,396.50
2019-03-22T01:11:15.972Z,418.02
2019-03-22T01:13:23.679Z,413.27
2019-03-22T01:15:31.486Z,396.90
2019-03-22T01:17:39.199Z,391.73
2019-03-22T01:19:46.953Z,390.52
2019-03-22T01:21:54.827Z,405.98
2019-03-22T01:24:02.606Z,371.45
2019-03-22T01:26:10.301Z,409.00
2019-03-22T01:28:18.134Z,371.48
2019-03-22T01:30:27.243Z,394.30
2019-03-22T01:32:36.185Z,425.32
2019-03-22T01:34:44.060Z,369.60
2019-03-22T01:36:51.870Z,417.35
2019-03-22T01:38:59.620Z,397.12
2019-03-22T01:41:07.421Z,398.50
2019-03-22T01:43:15.179Z,356.80
2019-03-22T01:45:22.947Z,349.90
2019-03-22T01:47:51.772Z,342.07
2019-03-22T01:49:59.471Z,355.75
2019-03-22T01:52:07.112Z,338.73
2019-03-22T01:54:15.366Z,332.48
2019-03-22T01:56:22.999Z,373.73
2019-03-22T01:58:30.757Z,387.90
2019-03-22T02:00:38.537Z,395.90
2019-03-22T02:02:46.405Z,408.60
2019-03-22T02:04:54.159Z,412.15
2019-03-22T02:07:01.914Z,383.05
2019-03-22T02:09:09.702Z,386.35
2019-03-22T02:11:17.391Z,378.48
2019-03-22T02:13:25.175Z,461.35
2019-03-22T02:15:32.911Z,433.53
2019-03-22T02:17:40.692Z,431.63
2019-03-22T02:19:48.388Z,432.40
2019-03-22T02:21:56.140Z,391.02
2019-03-22T02:24:03.830Z,391.40
2019-03-22T02:26:11.768Z,359.12
2019-03-22T02:28:19.522Z,344.40
2019-03-22T02:30:27.372Z,345.57
2019-03-22T02:32:35.105Z,307.95
2019-03-22T02:34:42.805Z,304.55
2019-03-22T02:36:50.662Z,261.27
2019-03-22T02:38:58.480Z,218.48
2019-03-22T02:41:06.166Z,196.85
2019-03-22T02:43:13.848Z,196.80
2019-03-22T02:45:21.574Z,176.85
2019-03-22T02:47:29.156Z,164.70
2019-03-22T02:49:38.106Z,168.17
2019-03-22T02:51:45.843Z,151.87
2019-03-22T02:53:53.514Z,155.37
2019-03-22T02:56:02.200Z,148.45
2019-03-22T02:58:20.555Z,150.15
2019-03-22T03:00:19.916Z,155.43
2019-03-22T03:02:27.792Z,153.60
2019-03-22T03:04:35.532Z,147.53
2019-03-22T03:06:43.291Z,142.87
2019-03-22T03:08:50.968Z,146.65
2019-03-22T03:10:58.810Z,144.07
2019-03-22T03:13:06.464Z,136.15
2019-03-22T03:15:17.278Z,140.52
2019-03-22T03:17:24.895Z,137.47
2019-03-22T03:19:32.566Z,131.45
2019-03-22T03:21:40.272Z,131.93
2019-03-22T03:23:47.961Z,133.05
2019-03-22T03:25:55.537Z,141.47
2019-03-22T03:28:03.188Z,138.40
2019-03-22T03:30:22.153Z,137.65
2019-03-22T03:32:29.802Z,134.32
2019-03-22T03:34:37.397Z,125.92
2019-03-22T03:36:45.178Z,127.22
2019-03-22T03:38:52.824Z,132.57
2019-03-22T03:41:00.686Z,127.10
2019-03-22T03:43:08.403Z,131.57
2019-03-22T03:45:34.642Z,128.78
2019-03-22T03:47:42.383Z,135.85
2019-03-22T03:49:51.296Z,132.78
2019-03-22T03:51:58.982Z,124.58
2019-03-22T03:54:06.808Z,122.72
2019-03-22T03:56:15.281Z,138.52
2019-03-22T03:58:23.204Z,132.22
2019-03-22T04:00:31.024Z,134.65
2019-03-22T04:02:38.800Z,138.35
2019-03-22T04:04:46.379Z,135.15
2019-03-22T04:06:54.132Z,130.47
2019-03-22T04:09:01.834Z,128.38
2019-03-22T04:11:09.653Z,128.53
2019-03-22T04:13:18.674Z,130.18
2019-03-22T04:15:26.525Z,133.50
2019-03-22T04:17:35.435Z,127.22
2019-03-22T04:19:43.096Z,124.18
2019-03-22T04:21:50.822Z,108.57
2019-03-22T04:23:58.408Z,107.52
2019-03-22T04:26:06.526Z,96.75
2019-03-22T04:28:16.014Z,111.85
2019-03-22T04:30:23.694Z,103.45
2019-03-22T04:32:31.435Z,113.60
2019-03-22T04:34:39.114Z,113.70
2019-03-22T04:36:46.806Z,112.25
2019-03-22T04:38:54.650Z,124.27
2019-03-22T04:41:02.359Z,121.02
2019-03-22T04:43:10.207Z,122.30
2019-03-22T04:45:17.935Z,116.75
2019-03-22T04:47:26.285Z,116.37
2019-03-22T04:49:36.551Z,120.80
2019-03-22T04:51:44.967Z,112.17
2019-03-22T04:53:55.247Z,115.67
2019-03-22T04:56:04.642Z,110.42
2019-03-22T04:58:14.578Z,120.22
2019-03-22T05:00:23.194Z,105.27
2019-03-22T05:02:32.614Z,109.30
2019-03-22T05:04:41.643Z,104.75
2019-03-22T05:06:50.941Z,107.45
2019-03-22T05:09:01.269Z,107.25
2019-03-22T05:11:10.922Z,106.45
2019-03-22T05:13:21.656Z,99.47
2019-03-22T05:15:31.638Z,101.97
2019-03-22T05:17:39.557Z,100.78
2019-03-22T05:19:51.340Z,99.25
2019-03-22T05:22:00.451Z,98.60
2019-03-22T05:24:09.169Z,94.00
2019-03-22T05:26:19.911Z,94.10
2019-03-22T05:28:29.033Z,90.15
2019-03-22T05:31:05.232Z,85.77
2019-03-22T05:33:12.938Z,81.75
2019-03-22T05:35:20.622Z,91.95
2019-03-22T05:37:28.362Z,83.40
2019-03-22T05:39:36.073Z,87.90
2019-03-22T05:41:43.758Z,82.20
2019-03-22T05:43:51.431Z,75.92
2019-03-22T05:45:59.131Z,75.10
2019-03-22T05:48:07.793Z,83.97
2019-03-22T05:50:15.546Z,83.37
2019-03-22T05:52:23.156Z,79.62
2019-03-22T05:54:30.842Z,80.45
2019-03-22T05:56:38.603Z,75.65
2019-03-22T05:58:47.269Z,73.17
2019-03-22T06:00:55.027Z,85.42
2019-03-22T06:03:02.724Z,53.58
2019-03-22T06:05:10.558Z,76.40
2019-03-22T06:07:18.282Z,80.55
2019-03-22T06:09:25.880Z,89.72
2019-03-22T06:11:33.666Z,111.52
2019-03-22T06:13:44.450Z,101.00
2019-03-22T06:15:52.024Z,93.65
2019-03-22T06:17:59.822Z,80.28
2019-03-22T06:20:09.413Z,87.27
2019-03-22T06:22:17.062Z,69.92
2019-03-22T06:24:24.759Z,88.45
2019-03-22T06:26:32.441Z,88.72
2019-03-22T06:28:40.186Z,94.60
2019-03-22T06:30:47.919Z,79.42
2019-03-22T06:32:55.705Z,91.78
2019-03-22T06:35:04.211Z,88.33
2019-03-22T06:37:12.171Z,85.75
2019-03-22T06:39:19.911Z,92.92
2019-03-22T06:41:27.654Z,93.52
2019-03-22T06:43:35.366Z,85.28
2019-03-22T06:45:43.230Z,85.95
2019-03-22T06:47:50.936Z,78.80
2019-03-22T06:49:58.643Z,77.72
2019-03-22T06:52:06.399Z,79.12
2019-03-22T06:54:14.162Z,69.90
2019-03-22T06:56:21.938Z,45.33
2019-03-22T06:58:29.700Z,75.20
2019-03-22T07:00:38.287Z,81.00
2019-03-22T07:02:46.022Z,75.83
2019-03-22T07:04:53.836Z,78.55
2019-03-22T07:07:01.520Z,81.82
2019-03-22T07:09:09.371Z,72.17
2019-03-22T07:11:17.052Z,75.65
2019-03-22T07:13:24.837Z,75.25
2019-03-22T07:15:32.664Z,79.77
2019-03-22T07:17:40.350Z,87.67
2019-03-22T07:19:48.029Z,62.40
2019-03-22T07:21:55.746Z,72.60
2019-03-22T07:24:04.850Z,90.10
2019-03-22T07:26:12.519Z,97.57
2019-03-22T07:28:20.161Z,66.22
2019-03-22T07:30:27.789Z,98.87
2019-03-22T07:32:35.445Z,90.35
2019-03-22T07:34:43.151Z,96.12
2019-03-22T07:36:50.935Z,110.78
2019-03-22T07:38:58.629Z,121.13
2019-03-22T07:41:06.407Z,129.00
2019-03-22T07:43:14.141Z,101.70
2019-03-22T07:45:21.866Z,121.75
2019-03-22T07:47:30.776Z,121.55
2019-03-22T07:49:39.111Z,105.87
2019-03-22T07:51:46.802Z,120.33
2019-03-22T07:53:54.488Z,107.92
2019-03-22T07:56:02.080Z,116.33
2019-03-22T07:58:09.853Z,114.95
2019-03-22T08:00:29.892Z,115.90
2019-03-22T08:02:27.956Z,123.50
2019-03-22T08:04:35.656Z,135.40
2019-03-22T08:06:43.368Z,135.90
2019-03-22T08:08:51.206Z,132.80
2019-03-22T08:10:58.816Z,137.60
2019-03-22T08:13:06.791Z,136.68
2019-03-22T08:15:19.211Z,121.72
2019-03-22T08:17:27.085Z,132.27
2019-03-22T08:19:34.727Z,117.05
2019-03-22T08:21:42.390Z,103.20
2019-03-22T08:23:50.338Z,119.82
2019-03-22T08:25:58.012Z,117.65
2019-03-22T08:28:05.704Z,91.00
2019-03-22T08:30:13.588Z,106.78
2019-03-22T08:32:21.392Z,106.92
2019-03-22T08:34:29.002Z,108.75
2019-03-22T08:36:37.736Z,110.52
2019-03-22T08:38:45.548Z,95.28
2019-03-22T08:40:53.333Z,105.10
2019-03-22T08:43:01.118Z,104.85
2019-03-22T08:45:11.459Z,99.37
2019-03-22T08:47:19.524Z,104.60
2019-03-22T08:49:27.488Z,89.37
2019-03-22T08:51:35.395Z,93.78
2019-03-22T08:53:54.777Z,88.82
2019-03-22T08:55:53.489Z,94.50
2019-03-22T08:58:01.348Z,96.25
2019-03-22T09:00:13.110Z,90.47
2019-03-22T09:02:20.883Z,83.17
2019-03-22T09:04:29.594Z,82.67
2019-03-22T09:06:37.358Z,85.55
2019-03-22T09:08:47.775Z,81.57
2019-03-22T09:10:54.538Z,85.72
2019-03-22T09:13:02.148Z,77.35
2019-03-22T09:15:11.201Z,93.97
2019-03-22T09:17:19.826Z,76.70
2019-03-22T09:19:27.679Z,49.33
2019-03-22T09:21:35.543Z,78.95
2019-03-22T09:23:43.176Z,94.37
2019-03-22T09:25:50.875Z,95.95
2019-03-22T09:27:58.677Z,84.55
2019-03-22T09:30:13.061Z,57.93
2019-03-22T09:32:20.749Z,70.75
2019-03-22T09:34:33.621Z,62.40
2019-03-22T09:36:37.890Z,55.48
2019-03-22T09:38:45.550Z,57.83
2019-03-22T09:40:53.344Z,56.88
2019-03-22T09:43:01.131Z,82.12
2019-03-22T09:45:10.361Z,78.15
2019-03-22T09:47:18.049Z,78.65
2019-03-22T09:49:25.681Z,78.95
2019-03-22T09:51:34.267Z,90.87
2019-03-22T09:53:41.984Z,53.45
2019-03-22T09:55:49.843Z,89.70
2019-03-22T09:57:57.435Z,55.03
2019-03-22T10:00:09.720Z,59.42
2019-03-22T10:02:17.456Z,68.92
2019-03-22T10:04:25.161Z,76.07
2019-03-22T10:06:32.973Z,67.32
2019-03-22T10:08:41.846Z,62.10
2019-03-22T10:10:49.549Z,53.75
2019-03-22T10:12:57.470Z,56.25
2019-03-22T10:15:07.387Z,53.75
2019-03-22T10:17:15.027Z,43.58
2019-03-22T10:19:22.706Z,57.33
2019-03-22T10:21:30.579Z,58.00
2019-03-22T10:23:38.260Z,50.60
2019-03-22T10:25:45.997Z,56.28
2019-03-22T10:27:53.812Z,46.08
2019-03-22T10:30:01.539Z,56.83
2019-03-22T10:32:09.193Z,47.43
2019-03-22T10:34:16.948Z,39.90
2019-03-22T10:36:24.732Z,48.28
2019-03-22T10:38:32.480Z,52.58
2019-03-22T10:40:40.216Z,47.27
2019-03-22T10:42:48.081Z,40.67
2019-03-22T10:44:55.866Z,41.25
2019-03-22T10:47:03.814Z,47.60
2019-03-22T10:49:11.596Z,45.10
2019-03-22T10:51:21.538Z,45.40
2019-03-22T10:53:28.629Z,26.37
2019-03-22T10:55:36.233Z,43.90
2019-03-22T10:57:43.922Z,44.48
2019-03-22T10:59:51.677Z,42.33
2019-03-22T11:02:03.530Z,43.00
2019-03-22T11:06:25.794Z,41.98
2019-03-22T11:08:26.755Z,38.80
2019-03-22T11:10:34.355Z,43.30
2019-03-22T11:12:42.215Z,48.28
2019-03-22T11:14:49.933Z,41.13
2019-03-22T11:16:57.637Z,41.75
2019-03-22T11:19:05.904Z,44.25
2019-03-22T11:21:13.606Z,42.30
2019-03-22T11:23:21.449Z,44.00
2019-03-22T11:25:29.329Z,37.15
2019-03-22T11:27:37.364Z,39.53
2019-03-22T11:29:45.292Z,35.63
2019-03-22T11:31:53.201Z,26.40
2019-03-22T11:34:00.863Z,33.80
2019-03-22T11:36:08.528Z,28.47
2019-03-22T11:38:17.327Z,34.58
2019-03-22T11:40:25.161Z,36.48
2019-03-22T11:42:32.936Z,41.08
2019-03-22T11:44:40.769Z,36.70
2019-03-22T11:46:48.428Z,45.15
2019-03-22T11:48:56.125Z,69.27
2019-03-22T11:51:03.868Z,82.08
2019-03-22T11:53:11.642Z,362.82
2019-03-22T11:55:19.623Z,89.03
2019-03-22T11:57:28.618Z,107.83
2019-03-22T11:59:36.231Z,45.92
2019-03-22T12:01:43.901Z,38.95
2019-03-22T12:03:51.634Z,42.15
2019-03-22T12:05:59.438Z,40.85
2019-03-22T12:08:07.105Z,41.75
2019-03-22T12:10:20.784Z,45.65
2019-03-22T12:12:28.397Z,37.30
2019-03-22T12:14:36.233Z,42.00
2019-03-22T12:16:44.008Z,45.23
2019-03-22T12:18:51.821Z,39.18
2019-03-22T12:20:59.630Z,36.90
2019-03-22T12:23:07.489Z,60.60
2019-03-22T12:25:19.323Z,36.63
2019-03-22T12:27:36.223Z,60.60
2019-03-22T12:29:37.662Z,92.82
2019-03-22T12:31:45.333Z,48.63
2019-03-22T12:33:53.107Z,50.95
2019-03-22T12:36:00.836Z,50.30
2019-03-22T12:38:08.601Z,38.13
2019-03-22T12:40:23.481Z,40.70
2019-03-22T12:42:32.289Z,42.15
2019-03-22T12:44:40.050Z,49.45
2019-03-22T12:46:49.235Z,39.58
2019-03-22T12:48:57.156Z,50.23
2019-03-22T12:51:04.922Z,37.28
2019-03-22T12:53:12.628Z,44.15
2019-03-22T12:55:20.777Z,48.70
2019-03-22T12:57:28.386Z,22.93
2019-03-22T12:59:36.086Z,27.35
2019-03-22T13:01:44.019Z,37.85
2019-03-22T13:03:51.724Z,35.78
2019-03-22T13:05:59.431Z,30.85
2019-03-22T13:08:07.254Z,34.83
2019-03-22T13:10:19.204Z,49.35
2019-03-22T13:12:26.986Z,30.60
2019-03-22T13:14:35.904Z,38.45
2019-03-22T13:16:43.675Z,32.40
2019-03-22T13:18:51.378Z,30.23
2019-03-22T13:20:59.134Z,36.55
2019-03-22T13:23:06.734Z,38.58
2019-03-22T13:25:17.192Z,37.15
2019-03-22T13:27:24.970Z,30.23
2019-03-22T13:29:32.733Z,35.48
2019-03-22T13:31:40.506Z,39.18
2019-03-22T13:33:48.139Z,44.98
2019-03-22T13:35:55.904Z,45.58
2019-03-22T13:38:03.843Z,31.82
2019-03-22T13:40:12.010Z,31.93
2019-03-22T13:42:19.675Z,38.20
2019-03-22T13:44:27.780Z,45.23
2019-03-22T13:46:40.232Z,40.23
2019-03-22T13:48:45.997Z,41.13
2019-03-22T13:50:53.702Z,47.62
2019-03-22T13:53:01.466Z,43.20
2019-03-22T13:55:09.598Z,40.58
2019-03-22T13:57:17.274Z,34.98
2019-03-22T13:59:25.069Z,35.08
2019-03-22T14:01:32.742Z,23.42
2019-03-22T14:03:40.502Z,30.97
2019-03-22T14:05:48.343Z,33.98
2019-03-22T14:07:56.105Z,30.35
2019-03-22T14:10:06.758Z,29.18
2019-03-22T14:12:15.471Z,25.95
2019-03-22T14:14:23.137Z,28.05
2019-03-22T14:16:30.881Z,29.00
2019-03-22T14:18:38.510Z,37.15
2019-03-22T14:20:46.278Z,26.95
2019-03-22T14:22:54.056Z,36.55
2019-03-22T14:25:01.867Z,26.80
2019-03-22T14:27:09.724Z,72.25
2019-03-22T14:29:17.625Z,28.52
2019-03-22T14:31:25.427Z,52.08
2019-03-22T14:33:33.232Z,31.82
2019-03-22T14:35:40.873Z,67.25
2019-03-22T14:37:48.688Z,44.55
2019-03-22T14:39:56.391Z,29.15
2019-03-22T14:42:04.191Z,34.83
2019-03-22T14:44:11.901Z,28.47
2019-03-22T14:46:19.673Z,22.17
2019-03-22T14:48:27.496Z,23.67
2019-03-22T14:50:35.194Z,24.55
2019-03-22T14:52:42.969Z,26.00
2019-03-22T14:54:50.776Z,30.97
2019-03-22T14:56:58.605Z,27.98
2019-03-22T14:59:06.333Z,24.90
2019-03-22T15:01:13.936Z,27.30
2019-03-22T15:03:24.816Z,22.60
2019-03-22T15:05:32.614Z,27.48
2019-03-22T15:07:40.458Z,30.15
2019-03-22T15:09:48.184Z,14.58
2019-03-22T15:11:56.061Z,22.55
2019-03-22T15:14:08.774Z,27.95
2019-03-22T15:16:34.209Z,23.00
2019-03-22T15:18:59.749Z,21.87
2019-03-22T15:21:18.104Z,29.15
2019-03-22T15:23:43.563Z,26.55
2019-03-22T15:26:09.332Z,21.45
2019-03-22T15:28:25.750Z,22.40
2019-03-22T15:30:51.019Z,36.80
2019-03-22T15:33:13.573Z,34.90
2019-03-22T15:37:51.895Z,27.82
2019-03-22T15:40:02.848Z,25.27
2019-03-22T15:42:10.537Z,21.90
2019-03-22T15:44:18.370Z,19.35
2019-03-22T15:46:26.194Z,24.80
2019-03-22T15:48:33.991Z,34.35
2019-03-22T15:50:41.702Z,44.48
2019-03-22T15:52:49.303Z,40.20
2019-03-22T15:54:58.070Z,25.80
2019-03-22T15:57:05.829Z,39.38
2019-03-22T15:59:13.677Z,45.92
2019-03-22T16:01:21.542Z,41.42
2019-03-22T16:03:29.321Z,37.73
2019-03-22T16:05:37.156Z,37.08
2019-03-22T16:07:45.045Z,43.05
2019-03-22T16:09:53.594Z,37.98
2019-03-22T16:12:01.385Z,35.23
2019-03-22T16:14:10.025Z,32.05
2019-03-22T16:16:17.696Z,37.65
2019-03-22T16:18:25.470Z,34.38
2019-03-22T16:20:33.258Z,39.78
2019-03-22T16:22:40.965Z,39.27
2019-03-22T16:24:48.772Z,37.35
2019-03-22T16:26:56.523Z,34.65
2019-03-22T16:29:04.221Z,42.45
2019-03-22T16:31:13.104Z,45.12
2019-03-22T16:33:20.966Z,39.63
2019-03-22T16:35:28.640Z,34.70
2019-03-22T16:37:36.325Z,36.48
2019-03-22T16:39:44.141Z,38.08
2019-03-22T16:41:51.841Z,34.05
2019-03-22T16:43:59.534Z,37.10
2019-03-22T16:46:07.327Z,37.58
2019-03-22T16:48:15.088Z,33.40
2019-03-22T16:50:25.198Z,33.78
2019-03-22T16:52:32.913Z,38.35
2019-03-22T16:54:40.509Z,40.30
2019-03-22T16:56:48.373Z,37.88
2019-03-22T16:58:56.100Z,42.83
2019-03-22T17:01:05.553Z,41.37
2019-03-22T17:03:13.129Z,54.35
2019-03-22T17:05:20.823Z,62.78
2019-03-22T17:07:28.479Z,56.88
2019-03-22T17:09:36.162Z,63.70
2019-03-22T17:11:43.949Z,60.12
2019-03-22T17:13:51.653Z,56.20
2019-03-22T17:15:59.463Z,57.73
2019-03-22T17:18:07.410Z,71.02
2019-03-22T17:20:15.201Z,70.00
2019-03-22T17:22:22.853Z,74.27
2019-03-22T17:24:30.739Z,80.35
2019-03-22T17:26:38.488Z,78.37
2019-03-22T17:28:46.142Z,78.70
2019-03-22T17:30:53.997Z,77.47
2019-03-22T17:33:01.848Z,77.27
2019-03-22T17:35:10.267Z,80.87
2019-03-22T17:37:17.947Z,79.72
2019-03-22T17:39:25.692Z,89.22
2019-03-22T17:41:33.370Z,76.12
2019-03-22T17:43:40.971Z,85.05
2019-03-22T17:45:48.697Z,78.37
2019-03-22T17:47:56.448Z,81.53
2019-03-22T17:50:08.057Z,81.20
2019-03-22T17:52:16.044Z,77.62
2019-03-22T17:54:23.635Z,86.53
2019-03-22T17:56:31.584Z,84.50
2019-03-22T17:58:39.470Z,89.77
2019-03-22T18:00:47.692Z,99.52
2019-03-22T18:02:55.576Z,100.82
2019-03-22T18:05:03.601Z,96.20
2019-03-22T18:07:11.954Z,90.32
2019-03-22T18:09:19.959Z,96.67
2019-03-22T18:11:27.738Z,104.35
2019-03-22T18:13:35.640Z,108.70
2019-03-22T18:15:43.333Z,103.38
2019-03-22T18:17:51.187Z,143.90
2019-03-22T18:19:58.954Z,144.95
2019-03-22T18:22:06.749Z,149.20
2019-03-22T18:24:14.505Z,146.98
2019-03-22T18:26:22.157Z,138.82
2019-03-22T18:28:30.042Z,127.50
2019-03-22T18:30:37.814Z,148.22
2019-03-22T18:32:45.574Z,171.13
2019-03-22T18:34:53.450Z,245.82
2019-03-22T18:37:01.153Z,223.20
2019-03-22T18:39:09.824Z,211.52
2019-03-22T18:41:17.553Z,224.02
2019-03-22T18:43:25.320Z,224.07
2019-03-22T18:45:33.075Z,210.63
2019-03-22T18:47:41.443Z,184.90
2019-03-22T18:49:49.187Z,224.22
2019-03-22T18:51:56.934Z,218.88
2019-03-22T18:54:04.952Z,233.87
2019-03-22T18:56:14.382Z,237.27
2019-03-22T18:58:23.783Z,283.68
2019-03-22T19:00:31.626Z,299.88
2019-03-22T19:02:39.327Z,671.00
2019-03-22T19:04:47.034Z,558.38
2019-03-22T19:06:54.655Z,470.73
2019-03-22T19:09:02.284Z,301.75
2019-03-22T19:11:11.002Z,212.05
2019-03-22T19:13:18.898Z,249.02
2019-03-22T19:15:26.592Z,208.75
2019-03-22T19:17:34.289Z,223.45
2019-03-22T19:19:42.096Z,240.90
2019-03-22T19:21:49.792Z,227.85
2019-03-22T19:23:57.565Z,201.20
2019-03-22T19:26:05.313Z,221.90
2019-03-22T19:28:13.155Z,255.75
2019-03-22T19:30:20.858Z,214.38
2019-03-22T19:32:28.675Z,241.57
2019-03-22T19:34:36.445Z,253.70
2019-03-22T19:36:44.208Z,222.20
2019-03-22T19:38:52.985Z,204.53
2019-03-22T19:41:01.799Z,197.22
2019-03-22T19:43:10.551Z,238.03
2019-03-22T19:45:18.319Z,231.72
2019-03-22T19:47:26.031Z,208.20
2019-03-22T19:49:35.182Z,234.95
2019-03-22T19:51:42.983Z,221.37
2019-03-22T19:53:50.686Z,198.28
2019-03-22T19:55:58.483Z,199.57
2019-03-22T19:58:06.129Z,202.32
2019-03-22T20:00:17.366Z,223.22
2019-03-22T20:02:24.989Z,205.83
2019-03-22T20:04:32.887Z,201.62
2019-03-22T20:06:40.587Z,257.30
2019-03-22T20:08:48.297Z,330.95
2019-03-22T20:10:56.218Z,374.80
2019-03-22T20:13:03.887Z,338.77
2019-03-22T20:15:12.901Z,385.10
2019-03-22T20:17:20.633Z,354.25
2019-03-22T20:19:28.307Z,362.27
2019-03-22T20:21:36.110Z,373.82
2019-03-22T20:23:53.224Z,381.63
2019-03-22T20:25:53.311Z,403.32
2019-03-22T20:28:00.986Z,342.73
2019-03-22T20:30:14.005Z,338.45
2019-03-22T20:32:21.782Z,328.60
2019-03-22T20:34:29.599Z,346.32
2019-03-22T20:36:37.319Z,310.88
2019-03-22T20:38:46.057Z,277.87
2019-03-22T20:40:53.664Z,314.42
2019-03-22T20:43:01.521Z,321.32
2019-03-22T20:45:09.587Z,336.27
2019-03-22T20:47:17.413Z,327.75
2019-03-22T20:49:25.245Z,444.60
2019-03-22T20:51:32.920Z,436.28
2019-03-22T20:53:40.632Z,339.55
2019-03-22T20:55:48.352Z,280.15
2019-03-22T20:57:56.068Z,259.00
2019-03-22T21:00:11.186Z,285.85
2019-03-22T21:02:18.987Z,255.35
2019-03-22T21:04:26.695Z,262.63
2019-03-22T21:06:34.475Z,280.55
2019-03-22T21:08:42.200Z,315.18
2019-03-22T21:10:49.955Z,314.05
2019-03-22T21:12:57.727Z,530.48
2019-03-22T21:15:23.941Z,770.52
2019-03-22T21:17:23.713Z,920.50
2019-03-22T21:19:31.386Z,895.45
2019-03-22T21:21:40.046Z,722.40
2019-03-22T21:23:47.991Z,789.83
2019-03-22T21:25:55.866Z,783.58
2019-03-22T21:28:03.981Z,759.03
2019-03-22T21:30:16.539Z,589.20
2019-03-22T21:32:24.319Z,1300.68
2019-03-22T21:34:32.211Z,899.10
2019-03-22T21:36:40.183Z,958.55
2019-03-22T21:38:47.943Z,1242.55
2019-03-22T21:40:56.944Z,1163.42
2019-03-22T21:43:04.819Z,845.83
2019-03-22T21:45:12.936Z,1532.18
2019-03-22T21:47:20.807Z,1437.65
2019-03-22T21:49:30.043Z,1339.22
2019-03-22T21:51:37.885Z,1214.03
2019-03-22T21:53:45.750Z,1038.35
2019-03-22T21:55:54.354Z,900.68
2019-03-22T21:58:02.146Z,1350.72
2019-03-22T22:00:15.081Z,1061.28
2019-03-22T22:02:22.787Z,851.62
2019-03-22T22:04:30.543Z,1438.70
2019-03-22T22:06:38.291Z,1569.78
2019-03-22T22:08:45.963Z,991.50
2019-03-22T22:10:59.823Z,894.05
2019-03-22T22:13:03.209Z,908.95
2019-03-22T22:15:12.232Z,753.52
2019-03-22T22:17:19.990Z,730.27
2019-03-22T22:19:28.069Z,804.05
2019-03-22T22:21:35.676Z,675.65
2019-03-22T22:23:44.376Z,864.02
2019-03-22T22:25:51.997Z,969.40
2019-03-22T22:27:59.784Z,873.00
2019-03-22T22:30:10.193Z,650.70
2019-03-22T22:32:17.894Z,902.88
2019-03-22T22:34:25.489Z,727.80
2019-03-22T22:36:33.184Z,688.27
2019-03-22T22:38:40.815Z,799.25
2019-03-22T22:40:48.486Z,720.85
2019-03-22T22:42:56.085Z,716.50
2019-03-22T22:45:05.110Z,668.58
2019-03-22T22:47:12.710Z,608.92
2019-03-22T22:49:20.402Z,733.42
2019-03-22T22:51:28.228Z,728.95
2019-03-22T22:53:35.994Z,625.33
2019-03-22T22:55:43.693Z,542.65
2019-03-22T22:57:52.389Z,554.85
2019-03-22T23:00:00.070Z,491.23
2019-03-22T23:02:07.769Z,511.43
2019-03-22T23:04:16.479Z,491.45
2019-03-22T23:06:24.252Z,490.65
2019-03-22T23:08:32.124Z,788.48
2019-03-22T23:10:39.820Z,449.10
2019-03-22T23:12:48.875Z,555.50
2019-03-22T23:14:56.697Z,522.02
2019-03-22T23:17:04.536Z,613.08
2019-03-22T23:19:12.460Z,499.05
2019-03-22T23:21:20.214Z,468.67
2019-03-22T23:23:28.109Z,482.00
2019-03-22T23:25:36.045Z,479.68
2019-03-22T23:27:45.039Z,617.83
2019-03-22T23:29:52.763Z,436.12
2019-03-22T23:32:00.461Z,753.02
2019-03-22T23:34:08.367Z,453.35
2019-03-22T23:36:20.265Z,496.68
2019-03-22T23:38:25.461Z,380.42
2019-03-22T23:40:33.151Z,710.97
2019-03-22T23:42:42.011Z,650.87
2019-03-22T23:44:50.967Z,799.48
2019-03-22T23:46:58.566Z,913.03
2019-03-22T23:49:06.187Z,799.70
2019-03-22T23:51:13.780Z,727.08
2019-03-22T23:53:21.594Z,967.73
2019-03-22T23:55:29.313Z,969.75
2019-03-22T23:57:37.070Z,719.90
2019-03-22T23:59:44.899Z,1136.40
